CLASSIFICA

GRANFONDO BASSA VALDICHIANA

GARA MTB KM 20 E 49

CITTA' DELLA PIEVE (PG) 20/05/2018

DIVISIONI:
GF     MF     CLASSIFICA:   ASSOLUTA    M     F    
CATEGORIE:   TUTTE    |   ELITE   |   ELITE F   |   ELITE SPORT   |   JUNIOR F   |   JUNIOR M   |   M OVER   |   M1   |   M2   |   M3   |   M4   |   M5   |   M6   |   W1   |   W2  
FILTRO:
  Atleta      Team        Pulisci       Atleti classificati GF: 198  

Cliccare sulle colonne per cambiare ordinamento Pagina:   | 1 | | 2 | | 3 | | 4 |
Azioni Pos. M/F Cat. P.Cat. Pett Naz Atleta Squadra Tempo Distacco in tempo Distacco in metri
11ELITE11CASAGRANDE FRANCESCOA.S.D. CICLI TADDEI02:10:00 00:00:00 0
22ELITE SPORT163BALLONI ALFREDOASD CUSTOM4.IT CYCLING TEAM02:18:56 00:08:56 3.150
33M1110VANNI TOMMASOA.S.D. CICLI TADDEI02:18:56 00:08:56 3.150
44ELITE29RIDOLFI RICCARDOCIB MONTANINI ECO FUTURA02:18:58 00:08:58 3.161
55ELITE37CRISI ROBERTOCANNONDALE RH-RACING02:20:00 00:10:00 3.499
66ELITE SPORT288CARACCIOLO LEONARDOASD SC CENTRO BICI TEAM TERNI02:20:03 00:10:03 3.516
77ELITE48FICORILLI MANUELNEW BIKE 2008 RACING TEAM02:23:55 00:13:55 4.738
88M41131GIOVANE SILVIOUC PETRIGNANO ASD02:25:08 00:15:08 5.109
99M2177BONINSEGNI LUCATEAM SCOTT PASQUINI STELLA AZZURRA02:28:23 00:18:23 6.070
1010M42227PEZZOTTI ANDREAASD TEAM BIKE CIVITAVECCHIA02:28:24 00:18:24 6.075
1111ELITE SPORT3675CHIERUZZI LEONARDOGS AVIS AMELIA ASD02:28:57 00:18:57 6.233
1212M31159GRELLI EMANUELESC PARLESCA TEAM MOTORPOINT02:29:15 00:19:15 6.319
1313M22285DICATALDO CHRISTIANASD LARIS BIKE02:29:47 00:19:47 6.471
1414ELITE SPORT4116DI EMIDIO GIANLUCACASTELTROSINO SUPERBIKE02:31:24 00:21:24 6.926
1515M43202MOSTARDA DARIOMOUNTAN BIKE CLUB RIETI02:32:44 00:22:44 7.293
1616M12280VITALE FRANCESCOASD GUSTATREVI MTB02:32:54 00:22:54 7.338
1717M13102CIUCCI MARCOASD MTB CASTIGLIONE DEL LAGO02:33:54 00:23:54 7.609
1818M32114DE PROSPERIS GIULIOASD CUSTOM4.IT CYCLING TEAM02:33:57 00:23:57 7.622
1919M3356ALUNNO SELLERI LUCAUMBERTIDE CYCLING TEAM02:34:35 00:24:35 7.792
2020M51135FROSINI FABIOG.S. TESTI CICLI A.S.D.02:34:36 00:24:36 7.796
2121M44291GORI NICOLAATAKAMA RACE02:35:39 00:25:39 8.074
2222M4551AGOSTINELLI LUCAUC PETRIGNANO ASD02:36:09 00:26:09 8.205
2323M34173LUZI LUIGICASTELTROSINO SUPERBIKE02:36:33 00:26:33 8.310
2424ELITE SPORT5106COMMODI VALENTINOASD MC2 BIKE02:36:58 00:26:58 8.418
2525M52155GORIETTI MARCOUC PETRIGNANO ASD02:37:00 00:27:00 8.426
2626M23224PETRINI STEFANOASD MC2 BIKE02:37:27 00:27:27 8.542
2727M4658ANDREANI MICHELEG.S. TESTI CICLI A.S.D.02:37:50 00:27:50 8.640
2828M24278VENTURINI SIMONEASD GUSTATREVI MTB02:37:51 00:27:51 8.645
2929M25165LAUDATI GRAZIANOASD FARAM CYCLING TEAM02:38:31 00:28:31 8.814
3030M5372BIONDI MASSIMOASD GRUPPO SPORTIVO MONDOBICI02:38:32 00:28:32 8.819
3131M14273TOMASSOLI DIEGODIEFFE BIKE TEAM02:38:38 00:28:38 8.844
3232ELITE SPORT6290NERI DAVIDEASD LARIS BIKE02:38:44 00:28:44 8.869
3333JUNIOR M13FERILLI MATTIAG.S. TESTI CICLI A.S.D.02:38:54 00:28:54 8.911
3434M47112CUCCHIARINI RINALDO LUCAA.S.D. BIKERS NOCERA UMBRA02:40:48 00:30:48 9.385
3535M54287PERAIO MARCOASD LARIS BIKE02:40:50 00:30:50 9.393
3636M35190MASTRINI MARCOA.S.D. BIKERS NOCERA UMBRA02:41:12 00:31:12 9.483
3737M36283FUCCELLI NICOA.S.D. CICLI TADDEI02:42:09 00:32:09 9.715
3838ELITE SPORT7245RIGHETTI FEDERICOG.S. TESTI CICLI A.S.D.02:42:09 00:32:09 9.715
3939M48488PIERGENTILI CLAUDIOVITERBO02:42:49 00:32:49 9.876
4040M61200MOSCHETTI MARIOSC PARLESCA TEAM MOTORPOINT02:43:17 00:33:17 9.988
4141M26195MISCIO DAMIANOLAKE BIKE TEAM ASD02:43:18 00:33:18 9.992
4242M15157GRASSINI ALESSANDRODIEFFE BIKE TEAM02:43:30 00:33:30 10.039
4343M16182MARCUCCI MIRCOASD SC CENTRO BICI TEAM TERNI02:43:31 00:33:31 10.043
4444M37132FODARONI MAUROG.S. TESTI CICLI A.S.D.02:43:32 00:33:32 10.047
4545M49119DOLCIOTTI MASSIMOASD LE VELO02:43:52 00:33:52 10.126
4646M55192MENGHINI GIAMPIEROVELO CLUB CICLI CINGOLANI ASD02:43:52 00:33:52 10.126
4747M38253RUFINI LUCIANOMOUNTAN BIKE CLUB RIETI02:43:53 00:33:53 10.130
4848M41070BIANCHINI DONATELLOASD MTB CASTIGLIONE DEL LAGO02:44:21 00:34:21 10.241
4949M39676BELNOME MARCOASD MONTALLESE02:45:03 00:35:03 10.405
5050M411108COZZARI GERMANOUC PETRIGNANO ASD02:45:04 00:35:04 10.409
5151M41260ARCALENI CARLOUMBERTIDE CYCLING TEAM02:45:29 00:35:29 10.506
5252M17268SPINI STEFANOUMBERTIDE CYCLING TEAM02:45:30 00:35:30 10.510
5353M413672ARDITO GIUSEPPE SALVATOREENERGIA PROPOSTE DI RECUPERO02:45:30 00:35:30 10.510
5454M62161GUERRA PAOLOASD BEST BIKE02:45:31 00:35:31 10.514
5555M310183MARIANANTONI GIOVANNIMOUNTAN BIKE CLUB RIETI02:45:39 00:35:39 10.545
5656M311156GRANTURCHELLI LORENZOUMBERTIDE CYCLING TEAM02:46:25 00:36:25 10.722
5757M312284TIGLI LUCAA.S.D. CICLI TADDEI02:47:50 00:37:50 11.045
5858ELITE SPORT8662PAUSELLI FILIPPOGS AVIS AMELIA ASD02:48:14 00:38:14 11.135
5959M56233PISTELLA ANTONIOASD LARIS BIKE02:48:18 00:38:18 11.150
6060M OVER1498SARTI STEFANOTRIONO RACING MEDICAL FREM02:48:18 00:38:18 11.150
6161M57158GRAZIUSO RAFFAELESC PARLESCA TEAM MOTORPOINT02:48:21 00:38:21 11.162
6262M27259SCARPONI CLAUDIOMTB CLUB SPOLETO02:48:36 00:38:36 11.218
6363M414168LIPPI MICHELEASD VELO CLUB RACING ASSISI BASTIA02:48:43 00:38:43 11.244
6464M18181MARCHETTINI MATTEOTRIONO RACING MEDICAL FREM02:48:43 00:38:43 11.244
6565M415186MARIOTTI FRANCESCOVELO CLUB CICLI CINGOLANI ASD02:48:44 00:38:44 11.248
6666M416120DOTTARELLI LUCAPRO TEAM EUROBICI ORVIETO02:49:29 00:39:29 11.415
6767M28208NOTTOLI ALESSIOUMBERTIDE CYCLING TEAM02:50:00 00:40:00 11.529
6868M5866BAROLA ROBERTOUC PETRIGNANO ASD02:50:16 00:40:16 11.588
6969M2971BINI FABRIZIOASD GUSTATREVI MTB02:51:22 00:41:22 11.828
7070M210683MURGIA EFISIOASD MTB CASTIGLIONE DEL LAGO02:51:23 00:41:23 11.831
7171ELITE SPORT9236POLI ROBERTOCASTELTROSINO SUPERBIKE02:51:27 00:41:27 11.846
7272M417281ZANCHI ROBERTORUOTA LIBERA A.S.D.02:51:28 00:41:28 11.849
731ELITE F112GULINO NINATEAM LOMBARDO BIKE02:51:28 00:41:28 11.849
7473ELITE SPORT10234POLI ANDREACASTELTROSINO SUPERBIKE02:51:29 00:41:29 11.853
7574M211254SABETTA DANIELEMOUNTAN BIKE CLUB RIETI02:52:48 00:42:48 12.136
7675M1964BARBANERA DIEGOASD MTB CASTIGLIONE DEL LAGO02:53:17 00:43:17 12.239
7776M313140GENTILI ANDREAASD FARAM CYCLING TEAM02:53:27 00:43:27 12.274
7877M314196MONACELLI GIUSEPPEAVIS BIKE CINGOLI02:53:30 00:43:30 12.285
7978M315201MOSCIONI ALESSIOUMBERTIDE CYCLING TEAM02:53:58 00:43:58 12.383
8079M316685CIPOLLINI SIMONECYCLING FOR ALL MASTER02:54:38 00:44:38 12.523
8180ELITE SPORT11223PETRELLI GLAUCOCASTELTROSINO SUPERBIKE02:54:53 00:44:53 12.575
8281M110681GRICCINI LUCIOG.C. CAPODARCO-COMUNITA'02:54:54 00:44:54 12.579
8382M59203NAPOLINI FRANCOMTB CLUB SPOLETO02:55:08 00:45:08 12.627
8483M510148GIGLIARELLI CLAUDIOUMBERTIDE CYCLING TEAM02:55:34 00:45:34 12.717
8584M212267SPIGARELLI MICHELEASD VELO CLUB RACING ASSISI BASTIA02:55:59 00:45:59 12.803
8685M418292FOSCOLI SERGIOCICL. TERONTOLA ATAKAMA RACE02:56:03 00:46:03 12.817
8786M OVER259ANGELETTI PIEROA.S.D. TEAM BIKE MIRANDA02:56:12 00:46:12 12.847
8887M511137GALLI LANFRANCOUC PETRIGNANO ASD02:56:28 00:46:28 12.902
8988M512177MARABISSI FRANCESCOASD LARIS BIKE02:57:41 00:47:41 13.149
9089M317109CREZZINI EMANUELEASD LARIS BIKE02:58:01 00:48:01 13.216
9190M513241PROIETTI GILBERTOGS AVIS AMELIA ASD02:58:28 00:48:28 13.307
9291M419286LAUDATI WALTERASD FARAM CYCLING TEAM02:58:42 00:48:42 13.353
9392M213204NARDI OMARASD MC2 BIKE02:58:52 00:48:52 13.386
9493M42098CIARMA FABRIZIOCASTELTROSINO SUPERBIKE02:58:55 00:48:55 13.396
9594M514244RAGUGINI ANDREA PIOAVIS GUALDO TADINO02:59:52 00:49:52 13.584
9695M63279VIOLA ERNESTOCICLOTURISTICA MASSA MARTANA02:59:52 00:49:52 13.584
9796M111122ELEUTERI DOMENICOCASTELTROSINO SUPERBIKE03:00:13 00:50:13 13.653
9897M112496SCORTECHINI FRANCESCOAVIS BIKE CINGOLI03:00:22 00:50:22 13.683
9998M OVER3289RISCAIO GIANFRANCOATAKAMA RACE03:00:24 00:50:24 13.689
10099ELITE SPORT12193MESCHINI ANDREAASD VELO CLUB RACING ASSISI BASTIA03:00:59 00:50:59 13.803
101100M42162BACCI QUINTILIOA.S.D. TEAM MATE'03:01:13 00:51:13 13.848
102101M318266SPEZIALI JURIASD VELO CLUB RACING ASSISI BASTIA03:01:43 00:51:43 13.945
103102ELITE SPORT134SEMENZATO MARCELLOA.S.D. CICLI TADDEI03:01:55 00:51:55 13.983
104103M214184MARINI DAVIDECASTELTROSINO SUPERBIKE03:02:17 00:52:17 14.054
105104M113276VALERI FABIOMOUNTAN BIKE CLUB RIETI03:02:18 00:52:18 14.057
106105M114252ROSSINI MIRCOASD LARIS BIKE03:02:33 00:52:33 14.105
107106M319219PAUSILLO MASSIMILIANOASD LARIS BIKE03:03:08 00:53:08 14.216
108107M215129PADIGLIONI FEDERICOFREEBIKE MARSCIANO ASD03:03:11 00:53:11 14.226
109108M422152GIOVANNELLI ANTONIOMOUNTAN BIKE CLUB RIETI03:03:29 00:53:29 14.282
110109M423669VANNUCCINI GABRIELEA.S.D. TEAM MATE'03:03:33 00:53:33 14.295
111110JUNIOR M211FEDERICI SIMONECASTELTROSINO SUPERBIKE03:04:21 00:54:21 14.446
112111M320139GASPARI EMILIOCASTELTROSINO SUPERBIKE03:04:22 00:54:22 14.449
113112ELITE SPORT1457AMELI GERARDOCASTELTROSINO SUPERBIKE03:04:22 00:54:22 14.449
114113M32191CERNICCHI WALTER GIANNIDIEFFE BIKE TEAM03:05:13 00:55:13 14.607
115114M216677ZEPPI MICHELEASD MONTALLESE03:05:15 00:55:15 14.614
116115M217489MILLETTI ANDREAGS ADIGE BIKE03:05:54 00:55:54 14.734
117116M515105COLOMBO DAVIDEMOUNTAN BIKE CLUB RIETI03:07:04 00:57:04 14.947
118117M115666DICATALDO DAVIDECLUB SPORTIVO VILLASTRADA03:08:07 00:58:07 15.138
119118M424665CAPECCI ROMINOASD BEST BIKE03:08:42 00:58:42 15.242
120119ELITE SPORT1590CENTINI LEONARDOASD MC2 BIKE03:08:43 00:58:43 15.245
121120M425255SALSERI PERLUIGIDISLIVELLO CAMP ASD03:08:47 00:58:47 15.257
122121M322211PALAZZETTI ANTONIOUMBERTIDE CYCLING TEAM03:10:32 01:00:32 15.567
123122M426179MARANI MARCOG.S. TESTI CICLI A.S.D.03:10:50 01:00:50 15.620
124123M323494SBORZACCHI GIAMPIEROASD FREE BIKE03:10:51 01:00:51 15.623
125124ELITE SPORT1667BAZZUCCHI GIACOMOLAKE BIKE TEAM ASD03:10:52 01:00:52 15.625
126125M324282ZANNOLI PAOLOMTB CLUB SPOLETO03:11:38 01:01:38 15.759
127126M116686TIBERI ENRICOS. MARINO RACE TEAM03:11:39 01:01:39 15.762
128127M218153GIULIANI FABIOCASTELTROSINO SUPERBIKE03:12:09 01:02:09 15.848
129128M11754ALUNNI GIORGIOUMBERTIDE CYCLING TEAM03:12:23 01:02:23 15.889
1302W11191MAZZORANA SARAA.S.D. TEAM BIKE MIRANDA03:12:24 01:02:24 15.891
131129M64115DE SANTIS DARIOCASTELTROSINO SUPERBIKE03:13:10 01:03:10 16.023
132130M427667MEACCI NICOCLUB SPORTIVO VILLASTRADA03:13:38 01:03:38 16.102
133131M428687FERRONI GIUSEPPEAVIS PRATOVECCHIO-ERREPI-LEE COUGAN03:14:13 01:04:13 16.201
134132M OVER4487ASCANI MASSIMOA.S.D. TEAM BIKE MIRANDA03:14:13 01:04:13 16.201
135133M21968BENEDETTI ALESSANDROMTB CLUB SPOLETO03:14:16 01:04:16 16.210
136134M516180MARCHEGGIANI CESAREDIEFFE BIKE TEAM03:15:58 01:05:58 16.494
137135M220288BATINO MASSIMOASD LARIS BIKE03:16:29 01:06:29 16.579
138136M325679SANDRELLI ANDREACICL. TERONTOLA ATAKAMA RACE03:17:44 01:07:44 16.784
139137M429263SERGIACOMI MASSIMOCASTELTROSINO SUPERBIKE03:17:48 01:07:48 16.795
140138M430668MENCARELLI LUCAASD MONTALLESE03:18:30 01:08:30 16.909
141139M326684GORI ROBERTOCYCLING FOR ALL MASTER03:18:36 01:08:36 16.925
142140M118210OTTONI FABIOCASTELTROSINO SUPERBIKE03:19:30 01:09:30 17.070
143141M119146GIANNETTI ELIACASTELTROSINO SUPERBIKE03:19:31 01:09:31 17.072
144142ELITE SPORT17154GLADIOLI SIMONECASTELTROSINO SUPERBIKE03:19:31 01:09:31 17.072
145143M431235POLI ANDREA DUILIOCASTELTROSINO SUPERBIKE03:19:31 01:09:31 17.072
146144M327499BARTOLUCCI FRANCESCOTRIONO RACING MEDICAL FREM03:19:57 01:09:57 17.142
147145M328671BAZZUCCHI LORENZOASD BEST BIKE03:21:44 01:11:44 17.423
148146M221293MENCARELLI ROBERTOASD LARIS BIKE03:22:03 01:12:03 17.473
149147M120199MORONCI CLAUDIOBIKE THERAPY A.S.D.03:22:31 01:12:31 17.545
150148M432664PIMPOLARI MAUROTRIONO RACING MEDICAL FREM03:22:39 01:12:39 17.566
151149M121212PANNAIOLI MATTEOCICLO CLUB DERUTA03:23:25 01:13:25 17.684
152150ELITE SPORT18674BASTIONI FEDERICOMTB CLUB RIETI03:23:28 01:13:28 17.692
1533W12175MAIOTTI MARINACICLO CLUB DERUTA03:23:37 01:13:37 17.715
154151M433151GIOVANNACCI ANDREAPOPPINS BIKE03:23:59 01:13:59 17.771
155152M517171LUCCI ANDREAGS AVIS AMELIA ASD03:25:53 01:15:53 18.060
1564W13265SOPRANZI LAURAASD SC CENTRO BICI TEAM TERNI03:26:41 01:16:41 18.179
157153M65239PRESCIUTTI ROBERTOCASTELTROSINO SUPERBIKE03:27:08 01:17:08 18.246
158154M43465BARBANERA TOMMASOG.S. TESTI CICLI A.S.D.03:27:33 01:17:33 18.308
159155M222260SCATENA ANDREASC PARLESCA TEAM MOTORPOINT03:27:57 01:17:57 18.367
160156M435174MACELLARI MAURIZIOASD LA BASE MTB CLUB TERNI03:28:39 01:18:39 18.470
161157M436271TARDOCCHI MASSIMILIANOMTB CLUB SPOLETO03:29:26 01:19:26 18.584
162158M437107CORNACCHINI MARCOFREEBIKE MARSCIANO ASD03:29:28 01:19:28 18.589
163159M329495BOFFELLI BRUNOCICLI FATATO03:31:31 01:21:31 18.884
164160ELITE SPORT19228PEZZOTTI GABRIELEMOUNTAN BIKE CLUB RIETI03:32:38 01:22:38 19.042
165161M330205NATALIZI CLAUDIOFREEBIKE MARSCIANO ASD03:33:06 01:23:06 19.107
166162M223178MARAMIGI ALESSANDROASD MC2 BIKE03:36:42 01:26:42 19.604
167163M224678TOMASSONI ANTONIOUC TRASIMENO03:37:59 01:27:59 19.777
168164ELITE SPORT20142GENTILI FABIOCASTELTROSINO SUPERBIKE03:39:15 01:29:15 19.946
169165M331680BIANCHINI MATTEOG.C. CAPODARCO-COMUNITA'03:39:15 01:29:15 19.946
170166M51853ALIMENTI GIANLUIGIMTB CLUB SPOLETO03:41:40 01:31:40 20.263
171167M519663VENTURI ENRICOTRIONO RACING MEDICAL FREM03:42:35 01:32:35 20.381
172168M33279BORZACCHIELLO GIUSEPPEFREEBIKE MARSCIANO ASD03:45:17 01:35:17 20.724
173169M225270TARDOCCHI ALESSIOUMBERTIDE CYCLING TEAM03:46:04 01:36:04 20.822
174170M12297CIAMBELLI DAVIDEUMBERTIDE CYCLING TEAM03:46:05 01:36:05 20.824
175171M520673DURANTI MARCOMTB CLUB SPOLETO03:46:23 01:36:23 20.861
1765W21490D'ELISO ANNALISAASD MA.AN.RT03:46:58 01:36:58 20.934
177172M66111CROCIONE ERALDOASD LA BASE MTB CLUB TERNI03:46:58 01:36:58 20.934
1786JUNIOR F12SABATINI CARMENRUOTA LIBERA A.S.D.03:48:53 01:38:53 21.169
179173M333261SCIABORDI GRAZIANOMTB CLUB SPOLETO03:50:21 01:40:21 21.346
180174ELITE SPORT21144GIAMPICCOLO LUCAMTB CLUB SPOLETO03:50:22 01:40:22 21.348
181175M521570BATTILANA GIAMPAOLOINDIVIDUALE03:51:14 01:41:14 21.452
182176M438486DELL'AQUIA FABIOINDIVIDUALE03:52:40 01:42:40 21.621
183177M439682CICCONI NICOLAIG.C. CAPODARCO-COMUNITA'03:54:20 01:44:20 21.816
184178M334118DIONISI MASSIMILIANOASD FARAM CYCLING TEAM04:06:54 01:56:54 23.200
185179M226257SANZARI VITTORIOMTB CLUB SPOLETO04:07:08 01:57:08 23.224
186180M335670DORINI MARCOCITTA' DUCALE RIETI04:07:34 01:57:34 23.269
187181M227294MURRU ANDREAASD LARIS BIKE04:12:08 02:02:08 23.735
188182M67272TESTA GIUSEPPECASTELTROSINO SUPERBIKE04:23:56 02:13:56 24.865
189183M52285CERQUAGLIA MARIOUC PETRIGNANO ASD04:24:06 02:14:06 24.880
190184M336170LOMBRICI SIMONEFREEBIKE MARSCIANO ASD04:35:15 02:25:15 25.857
191185M OVER5497FAINA GRAZIANOTRIONO RACING MEDICAL FREM04:37:00 02:27:00 26.003
192186M OVER6150GIORDANI MARCOMOUNTAN BIKE CLUB RIETI04:37:01 02:27:01 26.004
1937W22197MONTAGNINI ZOEMOUNTAN BIKE CLUB RIETI04:37:10 02:27:10 26.017
194187M OVER7225PETRIOLI GIAMPAOLOMTB CLUB SPOLETO06:00:00 03:50:00 31.305
195188ELITE56DESANTIS ALESSANDROMTB CLUB SPOLETO06:00:00 03:50:00 31.305
196189M123138GALLI MARINOCASTELTROSINO SUPERBIKE06:00:00 03:50:00 31.305
197190M228492ANGORI ANDREAUC TRASIMENO06:00:00 03:50:00 31.305
198191M229264SEVERINI ALESSIOUMBERTIDE CYCLING TEAM06:00:00 03:50:00 31.305
Righe per pagina::     TUTTE    |   30   |   50   |   100   Pagina:   | 1 | | 2 | | 3 | | 4 |